sensor_id;sensor_type;location;lat;lon;timestamp;P1;durP1;ratioP1;P2;durP2;ratioP2
51312;SDS011;37397;53.226;10.400;2023-11-18T00:00:55;13.65;;;9.02;;
51312;SDS011;37397;53.226;10.400;2023-11-18T00:03:22;12.80;;;9.10;;
51312;SDS011;37397;53.226;10.400;2023-11-18T00:05:48;14.05;;;9.07;;
51312;SDS011;37397;53.226;10.400;2023-11-18T00:08:15;14.00;;;8.80;;
51312;SDS011;37397;53.226;10.400;2023-11-18T00:10:41;15.75;;;9.82;;
51312;SDS011;37397;53.226;10.400;2023-11-18T00:13:08;12.45;;;8.80;;
51312;SDS011;37397;53.226;10.400;2023-11-18T00:15:35;13.55;;;9.25;;
51312;SDS011;37397;53.226;10.400;2023-11-18T00:18:02;17.02;;;9.38;;
51312;SDS011;37397;53.226;10.400;2023-11-18T00:20:28;13.23;;;8.88;;
51312;SDS011;37397;53.226;10.400;2023-11-18T00:22:57;13.80;;;9.30;;
51312;SDS011;37397;53.226;10.400;2023-11-18T00:25:24;12.43;;;8.52;;
51312;SDS011;37397;53.226;10.400;2023-11-18T00:27:50;13.05;;;8.80;;
51312;SDS011;37397;53.226;10.400;2023-11-18T00:30:17;13.73;;;9.27;;
51312;SDS011;37397;53.226;10.400;2023-11-18T00:32:44;12.48;;;8.48;;
51312;SDS011;37397;53.226;10.400;2023-11-18T00:35:11;14.38;;;8.73;;
51312;SDS011;37397;53.226;10.400;2023-11-18T00:37:38;12.38;;;7.85;;
51312;SDS011;37397;53.226;10.400;2023-11-18T00:40:05;13.40;;;8.75;;
51312;SDS011;37397;53.226;10.400;2023-11-18T00:42:33;12.32;;;8.50;;
51312;SDS011;37397;53.226;10.400;2023-11-18T00:45:00;16.17;;;9.13;;
51312;SDS011;37397;53.226;10.400;2023-11-18T00:47:26;13.88;;;8.63;;
51312;SDS011;37397;53.226;10.400;2023-11-18T00:49:53;11.77;;;7.95;;
51312;SDS011;37397;53.226;10.400;2023-11-18T00:52:20;12.80;;;8.65;;
51312;SDS011;37397;53.226;10.400;2023-11-18T00:54:47;14.60;;;8.80;;
51312;SDS011;37397;53.226;10.400;2023-11-18T00:57:13;13.00;;;8.68;;
51312;SDS011;37397;53.226;10.400;2023-11-18T00:59:43;12.60;;;8.43;;
51312;SDS011;37397;53.226;10.400;2023-11-18T01:02:10;11.77;;;7.57;;
51312;SDS011;37397;53.226;10.400;2023-11-18T01:04:37;12.93;;;8.38;;
51312;SDS011;37397;53.226;10.400;2023-11-18T01:07:04;12.75;;;8.25;;
51312;SDS011;37397;53.226;10.400;2023-11-18T01:09:30;13.68;;;9.40;;
51312;SDS011;37397;53.226;10.400;2023-11-18T01:12:03;14.02;;;8.50;;
51312;SDS011;37397;53.226;10.400;2023-11-18T01:14:34;13.95;;;9.32;;
51312;SDS011;37397;53.226;10.400;2023-11-18T01:17:05;13.48;;;8.88;;
51312;SDS011;37397;53.226;10.400;2023-11-18T01:19:32;12.30;;;8.38;;
51312;SDS011;37397;53.226;10.400;2023-11-18T01:22:00;14.00;;;8.77;;
51312;SDS011;37397;53.226;10.400;2023-11-18T01:24:27;12.70;;;8.82;;
51312;SDS011;37397;53.226;10.400;2023-11-18T01:26:54;11.85;;;8.32;;
51312;SDS011;37397;53.226;10.400;2023-11-18T01:29:21;14.63;;;8.48;;
51312;SDS011;37397;53.226;10.400;2023-11-18T01:31:48;12.52;;;8.23;;
51312;SDS011;37397;53.226;10.400;2023-11-18T01:34:18;13.30;;;8.48;;
51312;SDS011;37397;53.226;10.400;2023-11-18T01:36:48;13.98;;;7.80;;
51312;SDS011;37397;53.226;10.400;2023-11-18T01:39:16;12.48;;;8.27;;
51312;SDS011;37397;53.226;10.400;2023-11-18T01:41:44;13.77;;;8.40;;
51312;SDS011;37397;53.226;10.400;2023-11-18T01:44:11;12.88;;;8.43;;
51312;SDS011;37397;53.226;10.400;2023-11-18T01:46:41;14.07;;;8.98;;
51312;SDS011;37397;53.226;10.400;2023-11-18T01:49:12;13.82;;;8.35;;
51312;SDS011;37397;53.226;10.400;2023-11-18T01:51:41;12.38;;;8.40;;
51312;SDS011;37397;53.226;10.400;2023-11-18T01:54:09;14.55;;;8.32;;
51312;SDS011;37397;53.226;10.400;2023-11-18T01:56:43;14.57;;;8.70;;
51312;SDS011;37397;53.226;10.400;2023-11-18T01:59:12;11.75;;;7.55;;
51312;SDS011;37397;53.226;10.400;2023-11-18T02:01:48;12.98;;;8.18;;
51312;SDS011;37397;53.226;10.400;2023-11-18T02:04:18;12.65;;;7.97;;
51312;SDS011;37397;53.226;10.400;2023-11-18T02:06:50;14.68;;;8.52;;
51312;SDS011;37397;53.226;10.400;2023-11-18T02:09:18;13.25;;;8.55;;
51312;SDS011;37397;53.226;10.400;2023-11-18T02:14:43;14.25;;;8.45;;
51312;SDS011;37397;53.226;10.400;2023-11-18T02:17:12;13.50;;;8.38;;
51312;SDS011;37397;53.226;10.400;2023-11-18T02:19:40;14.02;;;8.55;;
51312;SDS011;37397;53.226;10.400;2023-11-18T02:22:08;12.63;;;7.80;;
51312;SDS011;37397;53.226;10.400;2023-11-18T02:24:37;11.68;;;7.72;;
51312;SDS011;37397;53.226;10.400;2023-11-18T02:27:04;13.45;;;8.05;;
51312;SDS011;37397;53.226;10.400;2023-11-18T02:29:34;13.95;;;8.02;;
51312;SDS011;37397;53.226;10.400;2023-11-18T02:32:15;11.50;;;7.32;;
51312;SDS011;37397;53.226;10.400;2023-11-18T02:34:58;12.35;;;7.88;;
51312;SDS011;37397;53.226;10.400;2023-11-18T02:37:40;12.32;;;7.47;;
51312;SDS011;37397;53.226;10.400;2023-11-18T02:40:11;12.25;;;7.65;;
51312;SDS011;37397;53.226;10.400;2023-11-18T02:42:41;10.48;;;7.07;;
51312;SDS011;37397;53.226;10.400;2023-11-18T02:45:10;13.35;;;7.70;;
51312;SDS011;37397;53.226;10.400;2023-11-18T02:47:43;12.25;;;7.00;;
51312;SDS011;37397;53.226;10.400;2023-11-18T02:50:11;11.70;;;7.47;;
51312;SDS011;37397;53.226;10.400;2023-11-18T02:52:41;10.98;;;6.68;;
51312;SDS011;37397;53.226;10.400;2023-11-18T02:55:08;13.32;;;7.90;;
51312;SDS011;37397;53.226;10.400;2023-11-18T02:57:35;11.43;;;7.38;;
51312;SDS011;37397;53.226;10.400;2023-11-18T03:00:03;11.98;;;7.38;;
51312;SDS011;37397;53.226;10.400;2023-11-18T03:02:31;11.90;;;7.53;;
51312;SDS011;37397;53.226;10.400;2023-11-18T03:04:58;10.85;;;7.10;;
51312;SDS011;37397;53.226;10.400;2023-11-18T03:07:25;10.93;;;6.68;;
51312;SDS011;37397;53.226;10.400;2023-11-18T03:09:53;12.02;;;6.97;;
51312;SDS011;37397;53.226;10.400;2023-11-18T03:12:23;10.82;;;6.97;;
51312;SDS011;37397;53.226;10.400;2023-11-18T03:14:53;11.60;;;7.32;;
51312;SDS011;37397;53.226;10.400;2023-11-18T03:17:20;13.27;;;7.50;;
51312;SDS011;37397;53.226;10.400;2023-11-18T03:19:46;11.82;;;7.38;;
51312;SDS011;37397;53.226;10.400;2023-11-18T03:22:13;12.15;;;7.30;;
51312;SDS011;37397;53.226;10.400;2023-11-18T03:24:39;12.38;;;7.65;;
51312;SDS011;37397;53.226;10.400;2023-11-18T03:27:06;10.82;;;6.55;;
51312;SDS011;37397;53.226;10.400;2023-11-18T03:29:35;12.38;;;7.93;;
51312;SDS011;37397;53.226;10.400;2023-11-18T03:32:03;11.57;;;6.85;;
51312;SDS011;37397;53.226;10.400;2023-11-18T03:34:31;11.32;;;7.30;;
51312;SDS011;37397;53.226;10.400;2023-11-18T03:36:58;12.35;;;7.70;;
51312;SDS011;37397;53.226;10.400;2023-11-18T03:39:25;11.23;;;7.50;;
51312;SDS011;37397;53.226;10.400;2023-11-18T03:41:53;10.95;;;6.95;;
51312;SDS011;37397;53.226;10.400;2023-11-18T03:44:20;11.52;;;7.15;;
51312;SDS011;37397;53.226;10.400;2023-11-18T03:46:47;11.73;;;6.80;;
51312;SDS011;37397;53.226;10.400;2023-11-18T03:49:13;10.65;;;6.70;;
51312;SDS011;37397;53.226;10.400;2023-11-18T03:51:40;11.07;;;6.80;;
51312;SDS011;37397;53.226;10.400;2023-11-18T03:54:07;10.93;;;7.00;;
51312;SDS011;37397;53.226;10.400;2023-11-18T03:56:34;12.07;;;7.28;;
51312;SDS011;37397;53.226;10.400;2023-11-18T03:59:01;12.13;;;6.85;;
51312;SDS011;37397;53.226;10.400;2023-11-18T04:01:30;9.82;;;6.53;;
51312;SDS011;37397;53.226;10.400;2023-11-18T04:03:59;11.38;;;7.35;;
51312;SDS011;37397;53.226;10.400;2023-11-18T04:06:25;11.18;;;6.97;;
51312;SDS011;37397;53.226;10.400;2023-11-18T04:08:52;12.63;;;7.35;;
51312;SDS011;37397;53.226;10.400;2023-11-18T04:11:19;12.77;;;7.68;;
51312;SDS011;37397;53.226;10.400;2023-11-18T04:13:46;11.63;;;7.10;;
51312;SDS011;37397;53.226;10.400;2023-11-18T04:16:13;14.38;;;7.30;;
51312;SDS011;37397;53.226;10.400;2023-11-18T04:18:44;11.38;;;7.10;;
51312;SDS011;37397;53.226;10.400;2023-11-18T04:21:12;10.23;;;6.65;;
51312;SDS011;37397;53.226;10.400;2023-11-18T04:23:40;13.10;;;7.30;;
51312;SDS011;37397;53.226;10.400;2023-11-18T04:26:08;11.75;;;6.90;;
51312;SDS011;37397;53.226;10.400;2023-11-18T04:28:35;12.30;;;7.35;;
51312;SDS011;37397;53.226;10.400;2023-11-18T04:31:02;11.73;;;7.53;;
51312;SDS011;37397;53.226;10.400;2023-11-18T04:33:29;12.65;;;7.32;;
51312;SDS011;37397;53.226;10.400;2023-11-18T04:35:56;11.57;;;6.93;;
51312;SDS011;37397;53.226;10.400;2023-11-18T04:38:26;10.90;;;6.53;;
51312;SDS011;37397;53.226;10.400;2023-11-18T04:40:52;11.05;;;6.85;;
51312;SDS011;37397;53.226;10.400;2023-11-18T04:43:20;13.75;;;7.50;;
51312;SDS011;37397;53.226;10.400;2023-11-18T04:46:06;11.15;;;6.80;;
51312;SDS011;37397;53.226;10.400;2023-11-18T04:48:32;12.95;;;8.10;;
51312;SDS011;37397;53.226;10.400;2023-11-18T04:51:02;12.63;;;7.00;;
51312;SDS011;37397;53.226;10.400;2023-11-18T04:53:28;19.05;;;7.53;;
51312;SDS011;37397;53.226;10.400;2023-11-18T04:55:55;13.35;;;7.45;;
51312;SDS011;37397;53.226;10.400;2023-11-18T04:58:22;11.55;;;7.45;;
51312;SDS011;37397;53.226;10.400;2023-11-18T05:00:48;12.80;;;7.30;;
51312;SDS011;37397;53.226;10.400;2023-11-18T05:03:15;11.45;;;6.65;;
51312;SDS011;37397;53.226;10.400;2023-11-18T05:05:43;12.25;;;7.32;;
51312;SDS011;37397;53.226;10.400;2023-11-18T05:08:20;9.68;;;6.07;;
51312;SDS011;37397;53.226;10.400;2023-11-18T05:10:47;11.52;;;7.00;;
51312;SDS011;37397;53.226;10.400;2023-11-18T05:13:15;12.98;;;6.93;;
51312;SDS011;37397;53.226;10.400;2023-11-18T05:15:43;13.70;;;6.95;;
51312;SDS011;37397;53.226;10.400;2023-11-18T05:18:13;11.50;;;7.05;;
51312;SDS011;37397;53.226;10.400;2023-11-18T05:20:44;13.68;;;7.53;;
51312;SDS011;37397;53.226;10.400;2023-11-18T05:23:11;9.65;;;6.32;;
51312;SDS011;37397;53.226;10.400;2023-11-18T05:25:42;10.55;;;6.72;;
51312;SDS011;37397;53.226;10.400;2023-11-18T05:28:12;11.63;;;6.65;;
51312;SDS011;37397;53.226;10.400;2023-11-18T05:30:41;10.93;;;6.70;;
51312;SDS011;37397;53.226;10.400;2023-11-18T05:33:09;12.85;;;7.57;;
51312;SDS011;37397;53.226;10.400;2023-11-18T05:35:41;10.75;;;7.07;;
51312;SDS011;37397;53.226;10.400;2023-11-18T05:38:13;9.63;;;6.30;;
51312;SDS011;37397;53.226;10.400;2023-11-18T05:40:42;11.50;;;6.72;;
51312;SDS011;37397;53.226;10.400;2023-11-18T05:43:16;10.52;;;6.45;;
51312;SDS011;37397;53.226;10.400;2023-11-18T05:45:46;12.13;;;7.07;;
51312;SDS011;37397;53.226;10.400;2023-11-18T05:48:32;11.80;;;6.85;;
51312;SDS011;37397;53.226;10.400;2023-11-18T05:50:59;11.10;;;6.82;;
51312;SDS011;37397;53.226;10.400;2023-11-18T05:53:25;14.57;;;7.35;;
51312;SDS011;37397;53.226;10.400;2023-11-18T05:55:59;11.98;;;6.70;;
51312;SDS011;37397;53.226;10.400;2023-11-18T05:58:26;11.68;;;7.18;;
51312;SDS011;37397;53.226;10.400;2023-11-18T06:00:55;12.32;;;6.82;;
51312;SDS011;37397;53.226;10.400;2023-11-18T06:03:22;14.20;;;7.35;;
51312;SDS011;37397;53.226;10.400;2023-11-18T06:05:48;10.73;;;6.60;;
51312;SDS011;37397;53.226;10.400;2023-11-18T06:08:15;12.35;;;6.97;;
51312;SDS011;37397;53.226;10.400;2023-11-18T06:10:41;12.85;;;6.82;;
51312;SDS011;37397;53.226;10.400;2023-11-18T06:13:09;12.55;;;6.93;;
51312;SDS011;37397;53.226;10.400;2023-11-18T06:15:36;12.20;;;7.20;;
51312;SDS011;37397;53.226;10.400;2023-11-18T06:18:05;10.93;;;6.55;;
51312;SDS011;37397;53.226;10.400;2023-11-18T06:20:33;11.98;;;6.90;;
51312;SDS011;37397;53.226;10.400;2023-11-18T06:23:01;11.63;;;7.03;;
51312;SDS011;37397;53.226;10.400;2023-11-18T06:25:28;12.05;;;7.28;;
51312;SDS011;37397;53.226;10.400;2023-11-18T06:27:56;10.80;;;6.75;;
51312;SDS011;37397;53.226;10.400;2023-11-18T06:30:24;12.27;;;7.30;;
51312;SDS011;37397;53.226;10.400;2023-11-18T06:32:52;11.32;;;6.72;;
51312;SDS011;37397;53.226;10.400;2023-11-18T06:35:19;12.23;;;7.65;;
51312;SDS011;37397;53.226;10.400;2023-11-18T06:37:47;11.50;;;7.13;;
51312;SDS011;37397;53.226;10.400;2023-11-18T06:40:14;12.10;;;7.45;;
51312;SDS011;37397;53.226;10.400;2023-11-18T06:42:45;12.23;;;7.57;;
51312;SDS011;37397;53.226;10.400;2023-11-18T06:45:15;10.88;;;6.50;;
51312;SDS011;37397;53.226;10.400;2023-11-18T06:47:41;12.40;;;7.35;;
51312;SDS011;37397;53.226;10.400;2023-11-18T06:50:12;15.15;;;7.43;;
51312;SDS011;37397;53.226;10.400;2023-11-18T06:52:42;12.43;;;7.40;;
51312;SDS011;37397;53.226;10.400;2023-11-18T06:55:12;11.18;;;7.05;;
51312;SDS011;37397;53.226;10.400;2023-11-18T06:57:40;12.30;;;7.93;;
51312;SDS011;37397;53.226;10.400;2023-11-18T07:00:09;12.27;;;7.72;;
51312;SDS011;37397;53.226;10.400;2023-11-18T07:02:37;12.52;;;7.78;;
51312;SDS011;37397;53.226;10.400;2023-11-18T07:05:04;14.43;;;7.78;;
51312;SDS011;37397;53.226;10.400;2023-11-18T07:07:32;12.70;;;7.30;;
51312;SDS011;37397;53.226;10.400;2023-11-18T07:09:58;14.43;;;7.28;;
51312;SDS011;37397;53.226;10.400;2023-11-18T07:12:25;11.32;;;7.10;;
51312;SDS011;37397;53.226;10.400;2023-11-18T07:14:51;14.60;;;7.18;;
51312;SDS011;37397;53.226;10.400;2023-11-18T07:17:20;13.63;;;7.18;;
51312;SDS011;37397;53.226;10.400;2023-11-18T07:19:46;12.27;;;7.78;;
51312;SDS011;37397;53.226;10.400;2023-11-18T07:22:13;11.25;;;6.97;;
51312;SDS011;37397;53.226;10.400;2023-11-18T07:24:41;11.48;;;7.10;;
51312;SDS011;37397;53.226;10.400;2023-11-18T07:27:07;13.65;;;7.85;;
51312;SDS011;37397;53.226;10.400;2023-11-18T07:29:37;13.95;;;8.15;;
51312;SDS011;37397;53.226;10.400;2023-11-18T07:32:04;15.82;;;7.75;;
51312;SDS011;37397;53.226;10.400;2023-11-18T07:34:32;13.40;;;8.27;;
51312;SDS011;37397;53.226;10.400;2023-11-18T07:37:02;13.13;;;7.38;;
51312;SDS011;37397;53.226;10.400;2023-11-18T07:39:28;13.68;;;8.13;;
51312;SDS011;37397;53.226;10.400;2023-11-18T07:42:11;15.13;;;8.27;;
51312;SDS011;37397;53.226;10.400;2023-11-18T07:44:38;13.98;;;8.25;;
51312;SDS011;37397;53.226;10.400;2023-11-18T07:47:07;13.32;;;7.60;;
51312;SDS011;37397;53.226;10.400;2023-11-18T07:49:34;12.73;;;8.07;;
51312;SDS011;37397;53.226;10.400;2023-11-18T07:52:02;15.63;;;8.88;;
51312;SDS011;37397;53.226;10.400;2023-11-18T07:54:29;13.13;;;8.10;;
51312;SDS011;37397;53.226;10.400;2023-11-18T07:56:56;12.90;;;7.70;;
51312;SDS011;37397;53.226;10.400;2023-11-18T07:59:23;17.98;;;8.20;;
51312;SDS011;37397;53.226;10.400;2023-11-18T08:01:50;13.65;;;8.50;;
51312;SDS011;37397;53.226;10.400;2023-11-18T08:04:16;15.02;;;9.05;;
51312;SDS011;37397;53.226;10.400;2023-11-18T08:06:47;15.18;;;9.13;;
51312;SDS011;37397;53.226;10.400;2023-11-18T08:09:14;16.85;;;8.30;;
51312;SDS011;37397;53.226;10.400;2023-11-18T08:11:40;13.63;;;8.75;;
51312;SDS011;37397;53.226;10.400;2023-11-18T08:14:08;13.07;;;8.10;;
51312;SDS011;37397;53.226;10.400;2023-11-18T08:16:35;16.00;;;8.70;;
51312;SDS011;37397;53.226;10.400;2023-11-18T08:19:02;13.35;;;8.23;;
51312;SDS011;37397;53.226;10.400;2023-11-18T08:21:29;15.23;;;8.75;;
51312;SDS011;37397;53.226;10.400;2023-11-18T08:23:55;15.90;;;8.70;;
51312;SDS011;37397;53.226;10.400;2023-11-18T08:26:22;15.30;;;7.85;;
51312;SDS011;37397;53.226;10.400;2023-11-18T08:28:48;15.35;;;7.45;;
51312;SDS011;37397;53.226;10.400;2023-11-18T08:31:15;13.63;;;8.50;;
51312;SDS011;37397;53.226;10.400;2023-11-18T08:33:42;14.70;;;7.18;;
51312;SDS011;37397;53.226;10.400;2023-11-18T08:36:09;13.55;;;7.80;;
51312;SDS011;37397;53.226;10.400;2023-11-18T08:38:38;12.80;;;7.70;;
51312;SDS011;37397;53.226;10.400;2023-11-18T08:41:06;11.70;;;7.25;;
51312;SDS011;37397;53.226;10.400;2023-11-18T08:43:35;14.43;;;7.07;;
51312;SDS011;37397;53.226;10.400;2023-11-18T08:46:02;14.07;;;7.70;;
51312;SDS011;37397;53.226;10.400;2023-11-18T08:48:28;11.13;;;6.82;;
51312;SDS011;37397;53.226;10.400;2023-11-18T08:50:55;11.70;;;6.55;;
51312;SDS011;37397;53.226;10.400;2023-11-18T08:53:21;12.48;;;6.90;;
51312;SDS011;37397;53.226;10.400;2023-11-18T08:55:52;13.95;;;7.32;;
51312;SDS011;37397;53.226;10.400;2023-11-18T08:58:22;13.70;;;7.45;;
51312;SDS011;37397;53.226;10.400;2023-11-18T09:00:54;13.68;;;7.18;;
51312;SDS011;37397;53.226;10.400;2023-11-18T09:03:32;12.23;;;7.00;;
51312;SDS011;37397;53.226;10.400;2023-11-18T09:06:03;12.60;;;7.55;;
51312;SDS011;37397;53.226;10.400;2023-11-18T09:08:32;12.43;;;7.22;;
51312;SDS011;37397;53.226;10.400;2023-11-18T09:11:11;13.07;;;7.05;;
51312;SDS011;37397;53.226;10.400;2023-11-18T09:13:47;10.90;;;6.38;;
51312;SDS011;37397;53.226;10.400;2023-11-18T09:16:15;12.73;;;7.55;;
51312;SDS011;37397;53.226;10.400;2023-11-18T09:18:43;13.55;;;7.03;;
51312;SDS011;37397;53.226;10.400;2023-11-18T09:21:13;12.75;;;6.93;;
51312;SDS011;37397;53.226;10.400;2023-11-18T09:23:45;13.10;;;7.28;;
51312;SDS011;37397;53.226;10.400;2023-11-18T09:26:14;13.00;;;6.93;;
51312;SDS011;37397;53.226;10.400;2023-11-18T09:28:41;11.18;;;6.47;;
51312;SDS011;37397;53.226;10.400;2023-11-18T09:31:07;12.00;;;6.80;;
51312;SDS011;37397;53.226;10.400;2023-11-18T09:33:41;10.98;;;6.53;;
51312;SDS011;37397;53.226;10.400;2023-11-18T09:36:18;13.48;;;6.80;;
51312;SDS011;37397;53.226;10.400;2023-11-18T09:38:45;12.05;;;6.70;;
51312;SDS011;37397;53.226;10.400;2023-11-18T09:41:17;12.40;;;5.97;;
51312;SDS011;37397;53.226;10.400;2023-11-18T09:43:46;12.98;;;6.97;;
51312;SDS011;37397;53.226;10.400;2023-11-18T09:46:22;10.77;;;6.85;;
51312;SDS011;37397;53.226;10.400;2023-11-18T09:48:51;12.23;;;6.97;;
51312;SDS011;37397;53.226;10.400;2023-11-18T09:51:23;12.27;;;6.32;;
51312;SDS011;37397;53.226;10.400;2023-11-18T09:53:58;11.10;;;6.15;;
51312;SDS011;37397;53.226;10.400;2023-11-18T09:56:51;10.75;;;6.60;;
51312;SDS011;37397;53.226;10.400;2023-11-18T09:59:42;11.45;;;6.85;;
51312;SDS011;37397;53.226;10.400;2023-11-18T10:02:11;11.45;;;6.03;;
51312;SDS011;37397;53.226;10.400;2023-11-18T10:04:38;10.23;;;6.07;;
51312;SDS011;37397;53.226;10.400;2023-11-18T10:07:06;11.57;;;5.55;;
51312;SDS011;37397;53.226;10.400;2023-11-18T10:09:37;10.75;;;6.30;;
51312;SDS011;37397;53.226;10.400;2023-11-18T10:12:08;8.95;;;5.18;;
51312;SDS011;37397;53.226;10.400;2023-11-18T10:14:35;8.85;;;5.07;;
51312;SDS011;37397;53.226;10.400;2023-11-18T10:17:06;11.50;;;5.65;;
51312;SDS011;37397;53.226;10.400;2023-11-18T10:19:49;9.75;;;4.78;;
51312;SDS011;37397;53.226;10.400;2023-11-18T10:22:22;9.57;;;4.90;;
51312;SDS011;37397;53.226;10.400;2023-11-18T10:24:50;12.70;;;5.55;;
51312;SDS011;37397;53.226;10.400;2023-11-18T10:27:24;8.98;;;4.60;;
51312;SDS011;37397;53.226;10.400;2023-11-18T10:29:55;8.38;;;4.72;;
51312;SDS011;37397;53.226;10.400;2023-11-18T10:32:22;8.52;;;4.55;;
51312;SDS011;37397;53.226;10.400;2023-11-18T10:34:57;8.73;;;4.82;;
51312;SDS011;37397;53.226;10.400;2023-11-18T10:37:27;8.60;;;5.10;;
51312;SDS011;37397;53.226;10.400;2023-11-18T10:39:58;8.88;;;4.60;;
51312;SDS011;37397;53.226;10.400;2023-11-18T10:42:31;7.57;;;4.05;;
51312;SDS011;37397;53.226;10.400;2023-11-18T10:44:59;10.05;;;5.00;;
51312;SDS011;37397;53.226;10.400;2023-11-18T10:47:33;7.88;;;4.57;;
51312;SDS011;37397;53.226;10.400;2023-11-18T10:50:06;8.30;;;4.90;;
51312;SDS011;37397;53.226;10.400;2023-11-18T10:52:36;8.20;;;4.72;;
51312;SDS011;37397;53.226;10.400;2023-11-18T10:55:07;7.95;;;4.60;;
51312;SDS011;37397;53.226;10.400;2023-11-18T10:57:39;10.82;;;5.45;;
51312;SDS011;37397;53.226;10.400;2023-11-18T11:00:08;9.18;;;5.07;;
51312;SDS011;37397;53.226;10.400;2023-11-18T11:02:41;8.35;;;4.90;;
51312;SDS011;37397;53.226;10.400;2023-11-18T11:05:08;7.97;;;4.43;;
51312;SDS011;37397;53.226;10.400;2023-11-18T11:07:47;9.15;;;5.32;;
51312;SDS011;37397;53.226;10.400;2023-11-18T11:10:15;9.80;;;4.93;;
51312;SDS011;37397;53.226;10.400;2023-11-18T11:12:43;7.55;;;4.40;;
51312;SDS011;37397;53.226;10.400;2023-11-18T11:15:20;7.88;;;4.20;;
51312;SDS011;37397;53.226;10.400;2023-11-18T11:17:52;6.95;;;3.72;;
51312;SDS011;37397;53.226;10.400;2023-11-18T11:20:22;6.90;;;3.73;;
51312;SDS011;37397;53.226;10.400;2023-11-18T11:23:18;7.88;;;3.53;;
51312;SDS011;37397;53.226;10.400;2023-11-18T11:25:52;7.68;;;3.72;;
51312;SDS011;37397;53.226;10.400;2023-11-18T11:28:29;6.82;;;3.75;;
51312;SDS011;37397;53.226;10.400;2023-11-18T11:31:10;5.93;;;3.53;;
51312;SDS011;37397;53.226;10.400;2023-11-18T11:33:43;7.65;;;3.90;;
51312;SDS011;37397;53.226;10.400;2023-11-18T11:36:20;8.02;;;4.47;;
51312;SDS011;37397;53.226;10.400;2023-11-18T11:38:51;7.45;;;3.80;;
51312;SDS011;37397;53.226;10.400;2023-11-18T11:41:23;6.78;;;3.63;;
51312;SDS011;37397;53.226;10.400;2023-11-18T11:43:53;8.43;;;3.85;;
51312;SDS011;37397;53.226;10.400;2023-11-18T11:46:24;9.40;;;4.43;;
51312;SDS011;37397;53.226;10.400;2023-11-18T11:49:02;6.57;;;4.10;;
51312;SDS011;37397;53.226;10.400;2023-11-18T11:51:46;7.43;;;4.05;;
51312;SDS011;37397;53.226;10.400;2023-11-18T11:54:21;6.53;;;3.88;;
51312;SDS011;37397;53.226;10.400;2023-11-18T11:56:55;5.47;;;3.20;;
51312;SDS011;37397;53.226;10.400;2023-11-18T12:02:13;7.65;;;4.30;;
51312;SDS011;37397;53.226;10.400;2023-11-18T12:04:46;7.05;;;3.90;;
51312;SDS011;37397;53.226;10.400;2023-11-18T12:07:19;6.45;;;3.60;;
51312;SDS011;37397;53.226;10.400;2023-11-18T12:09:56;7.47;;;4.05;;
51312;SDS011;37397;53.226;10.400;2023-11-18T12:12:25;7.30;;;3.47;;
51312;SDS011;37397;53.226;10.400;2023-11-18T12:14:57;6.63;;;3.60;;
51312;SDS011;37397;53.226;10.400;2023-11-18T12:23:23;6.40;;;3.85;;
51312;SDS011;37397;53.226;10.400;2023-11-18T12:25:51;6.53;;;3.33;;
51312;SDS011;37397;53.226;10.400;2023-11-18T12:28:26;6.32;;;3.30;;
51312;SDS011;37397;53.226;10.400;2023-11-18T12:33:24;7.20;;;3.92;;
51312;SDS011;37397;53.226;10.400;2023-11-18T12:38:46;6.47;;;3.70;;
51312;SDS011;37397;53.226;10.400;2023-11-18T12:41:23;7.60;;;3.45;;
51312;SDS011;37397;53.226;10.400;2023-11-18T12:47:01;7.60;;;3.47;;
51312;SDS011;37397;53.226;10.400;2023-11-18T12:49:41;5.77;;;3.57;;
51312;SDS011;37397;53.226;10.400;2023-11-18T12:52:09;5.25;;;3.17;;
51312;SDS011;37397;53.226;10.400;2023-11-18T12:54:41;6.05;;;3.70;;
51312;SDS011;37397;53.226;10.400;2023-11-18T12:57:12;5.30;;;3.00;;
51312;SDS011;37397;53.226;10.400;2023-11-18T12:59:43;5.63;;;3.22;;
51312;SDS011;37397;53.226;10.400;2023-11-18T13:02:10;6.30;;;3.85;;
51312;SDS011;37397;53.226;10.400;2023-11-18T13:04:48;6.65;;;3.58;;
51312;SDS011;37397;53.226;10.400;2023-11-18T13:07:16;6.50;;;3.42;;
51312;SDS011;37397;53.226;10.400;2023-11-18T13:09:51;6.18;;;3.40;;
51312;SDS011;37397;53.226;10.400;2023-11-18T13:12:20;5.30;;;3.10;;
51312;SDS011;37397;53.226;10.400;2023-11-18T13:14:49;8.07;;;4.50;;
51312;SDS011;37397;53.226;10.400;2023-11-18T13:17:18;8.73;;;5.13;;
51312;SDS011;37397;53.226;10.400;2023-11-18T13:19:45;8.95;;;4.45;;
51312;SDS011;37397;53.226;10.400;2023-11-18T13:22:13;8.63;;;4.53;;
51312;SDS011;37397;53.226;10.400;2023-11-18T13:24:41;8.30;;;4.32;;
51312;SDS011;37397;53.226;10.400;2023-11-18T13:27:18;7.72;;;4.40;;
51312;SDS011;37397;53.226;10.400;2023-11-18T13:29:48;9.73;;;4.03;;
51312;SDS011;37397;53.226;10.400;2023-11-18T13:32:16;7.03;;;4.10;;
51312;SDS011;37397;53.226;10.400;2023-11-18T13:34:44;8.93;;;4.00;;
51312;SDS011;37397;53.226;10.400;2023-11-18T13:37:12;8.07;;;4.07;;
51312;SDS011;37397;53.226;10.400;2023-11-18T13:39:43;7.35;;;4.07;;
51312;SDS011;37397;53.226;10.400;2023-11-18T13:42:20;10.10;;;4.18;;
51312;SDS011;37397;53.226;10.400;2023-11-18T13:44:49;7.30;;;3.90;;
51312;SDS011;37397;53.226;10.400;2023-11-18T13:47:17;6.47;;;3.45;;
51312;SDS011;37397;53.226;10.400;2023-11-18T13:49:44;7.57;;;3.80;;
51312;SDS011;37397;53.226;10.400;2023-11-18T13:52:12;8.15;;;3.75;;
51312;SDS011;37397;53.226;10.400;2023-11-18T13:54:42;9.10;;;3.60;;
51312;SDS011;37397;53.226;10.400;2023-11-18T13:57:11;9.05;;;3.83;;
51312;SDS011;37397;53.226;10.400;2023-11-18T13:59:38;7.60;;;3.50;;
51312;SDS011;37397;53.226;10.400;2023-11-18T14:02:05;5.82;;;3.17;;
51312;SDS011;37397;53.226;10.400;2023-11-18T14:04:33;6.75;;;3.40;;
51312;SDS011;37397;53.226;10.400;2023-11-18T14:07:00;6.68;;;3.33;;
51312;SDS011;37397;53.226;10.400;2023-11-18T14:09:32;7.15;;;3.10;;
51312;SDS011;37397;53.226;10.400;2023-11-18T14:12:03;6.25;;;3.10;;
51312;SDS011;37397;53.226;10.400;2023-11-18T14:14:32;5.57;;;2.90;;
51312;SDS011;37397;53.226;10.400;2023-11-18T14:16:59;5.00;;;2.85;;
51312;SDS011;37397;53.226;10.400;2023-11-18T14:19:27;5.75;;;3.10;;
51312;SDS011;37397;53.226;10.400;2023-11-18T14:21:55;5.30;;;2.88;;
51312;SDS011;37397;53.226;10.400;2023-11-18T14:24:22;6.05;;;3.63;;
51312;SDS011;37397;53.226;10.400;2023-11-18T14:26:54;6.85;;;3.63;;
51312;SDS011;37397;53.226;10.400;2023-11-18T14:29:20;6.65;;;3.60;;
51312;SDS011;37397;53.226;10.400;2023-11-18T14:31:47;7.63;;;4.03;;
51312;SDS011;37397;53.226;10.400;2023-11-18T14:34:14;8.15;;;4.30;;
51312;SDS011;37397;53.226;10.400;2023-11-18T14:36:41;8.32;;;4.55;;
51312;SDS011;37397;53.226;10.400;2023-11-18T14:39:11;8.25;;;4.60;;
51312;SDS011;37397;53.226;10.400;2023-11-18T14:41:40;6.88;;;4.38;;
51312;SDS011;37397;53.226;10.400;2023-11-18T14:44:07;7.65;;;4.35;;
51312;SDS011;37397;53.226;10.400;2023-11-18T14:46:36;8.60;;;4.70;;
51312;SDS011;37397;53.226;10.400;2023-11-18T14:49:07;8.13;;;4.93;;
51312;SDS011;37397;53.226;10.400;2023-11-18T14:51:36;8.73;;;4.38;;
51312;SDS011;37397;53.226;10.400;2023-11-18T14:54:03;8.07;;;4.40;;
51312;SDS011;37397;53.226;10.400;2023-11-18T14:56:31;7.85;;;4.25;;
51312;SDS011;37397;53.226;10.400;2023-11-18T14:58:58;6.78;;;4.22;;